Time;durP1;ratioP1;P1;durP2;ratioP2;P2;SDS_P1;SDS_P2;PMS_P1;PMS_P2;Temp;Humidity;BMP_temperature;BMP_pressure;BME280_temperature;BME280_humidity;BME280_pressure;Samples;Min_cycle;Max_cycle;Signal;HPM_P1;HPM_P2
2022/06/13 00:01:39;;;;;;;10.95;8.93;;;;;;;18.22;74.84;100314.33;1753094;82;20916;-87
2022/06/13 00:04:07;;;;;;;12.03;9.13;;;;;;;18.15;74.88;100311.94;1716801;83;20931;-87
2022/06/13 00:06:35;;;;;;;9.98;8.75;;;;;;;18.11;74.98;100313.70;1716922;83;20927;-87
2022/06/13 00:09:04;;;;;;;10.00;9.03;;;;;;;18.06;75.16;100308.84;1716992;83;20967;-87
2022/06/13 00:11:33;;;;;;;10.18;8.85;;;;;;;18.04;75.35;100303.34;1716921;83;21432;-87
2022/06/13 00:13:59;;;;;;;11.33;9.55;;;;;;;17.99;75.47;100303.30;1717008;82;21357;-86
2022/06/13 00:16:28;;;;;;;14.23;9.18;;;;;;;17.97;75.59;100301.78;1716749;83;20936;-85
2022/06/13 00:18:56;;;;;;;12.73;8.55;;;;;;;17.94;75.59;100299.41;1716811;83;20916;-86
2022/06/13 00:21:27;;;;;;;11.08;9.03;;;;;;;17.91;75.52;100301.86;1716694;83;21223;-86
2022/06/13 00:23:53;;;;;;;10.30;8.85;;;;;;;17.86;75.38;100297.50;1716851;83;20967;-88
2022/06/13 00:26:22;;;;;;;9.53;8.55;;;;;;;17.83;75.27;100293.83;1716992;83;21002;-88
2022/06/13 00:28:50;;;;;;;12.70;9.10;;;;;;;17.80;75.31;100290.92;1716905;83;20956;-86
2022/06/13 00:31:17;;;;;;;10.05;8.75;;;;;;;17.75;75.43;100283.91;1717017;83;20904;-86
2022/06/13 00:33:45;;;;;;;12.35;8.63;;;;;;;17.72;75.55;100289.98;1716750;83;21239;-87
2022/06/13 00:36:11;;;;;;;15.08;9.63;;;;;;;17.68;75.73;100288.63;1716770;83;20895;-86
2022/06/13 00:38:39;;;;;;;11.78;9.08;;;;;;;17.60;75.85;100285.36;1716809;83;20900;-86
2022/06/13 00:41:09;;;;;;;12.75;9.95;;;;;;;17.61;75.96;100292.35;1716816;82;20904;-86
2022/06/13 00:43:37;;;;;;;9.13;7.95;;;;;;;17.57;76.00;100282.52;1752813;81;21548;-86
2022/06/13 00:46:21;;;;;;;11.35;8.78;;;;;;;17.54;76.09;100279.31;1753091;81;21079;-87
2022/06/13 00:48:54;;;;;;;13.00;8.08;;;;;;;17.52;76.07;100282.59;1758214;81;20924;-87
2022/06/13 00:51:21;;;;;;;11.65;9.00;;;;;;;17.49;76.25;100280.24;1758170;81;28111;-87
2022/06/13 00:53:48;;;;;;;10.95;8.58;;;;;;;17.47;76.38;100276.41;1758195;81;20975;-86
2022/06/13 00:56:17;;;;;;;10.13;9.13;;;;;;;17.44;76.47;100275.88;1758369;81;20916;-86
2022/06/13 00:58:55;;;;;;;13.50;9.35;;;;;;;17.42;76.59;100273.86;1759896;81;21262;-86
2022/06/13 01:01:22;;;;;;;11.00;9.60;;;;;;;17.38;76.79;100273.30;1758648;81;20951;-87
2022/06/13 01:03:50;;;;;;;14.75;9.83;;;;;;;17.37;76.98;100275.63;1758672;80;20845;-88
2022/06/13 01:06:17;;;;;;;11.83;9.83;;;;;;;17.35;77.18;100273.60;1758361;80;20972;-84
2022/06/13 01:08:44;;;;;;;13.08;9.85;;;;;;;17.35;77.31;100282.88;1758181;81;20983;-88
2022/06/13 01:11:17;;;;;;;11.48;9.35;;;;;;;17.34;77.31;100287.35;1758981;81;21085;-87
2022/06/13 01:14:01;;;;;;;12.07;9.20;;;;;;;17.34;77.35;100285.17;1758792;80;21339;-86
2022/06/13 01:16:54;;;;;;;10.35;8.48;;;;;;;17.33;77.42;100286.98;1758327;80;20885;-84
2022/06/13 01:20:10;;;;;;;10.08;9.03;;;;;;;17.34;77.49;100285.17;1722426;83;20924;-87
2022/06/13 01:22:55;;;;;;;12.25;9.18;;;;;;;17.34;77.19;100284.70;1722504;82;20840;-85
2022/06/13 01:25:48;;;;;;;10.30;8.68;;;;;;;17.35;77.21;100269.62;1722742;83;21216;-85
2022/06/13 01:28:42;;;;;;;10.28;8.60;;;;;;;17.33;77.05;100279.03;1722455;83;20927;-87
2022/06/13 01:32:05;;;;;;;11.43;9.13;;;;;;;17.30;76.76;100275.36;1721843;83;20892;-87
2022/06/13 01:34:57;;;;;;;13.22;9.75;;;;;;;17.29;77.07;100278.14;1724910;80;20923;-88
2022/06/13 01:37:38;;;;;;;16.12;10.30;;;;;;;17.28;77.22;100279.14;1719729;80;20907;-86
2022/06/13 01:40:22;;;;;;;19.23;12.45;;;;;;;17.28;77.32;100281.79;1706840;82;21112;-86
2022/06/13 01:42:57;;;;;;;15.75;10.30;;;;;;;17.28;77.22;100287.09;1705762;81;21000;-87
2022/06/13 01:45:48;;;;;;;10.43;8.98;;;;;;;17.25;77.02;100289.51;1724228;80;20954;-86
2022/06/13 01:48:37;;;;;;;16.27;9.63;;;;;;;17.22;76.99;100289.81;1720430;80;20905;-87
2022/06/13 01:51:15;;;;;;;14.47;10.08;;;;;;;17.18;76.91;100289.25;1720222;80;20896;-86
2022/06/13 01:54:06;;;;;;;10.85;8.35;;;;;;;17.13;76.79;100294.64;1719828;80;21215;-86
2022/06/13 01:56:41;;;;;;;16.87;11.03;;;;;;;17.07;76.80;100299.18;1719401;80;21144;-87
2022/06/13 01:59:22;;;;;;;14.70;11.60;;;;;;;17.03;77.29;100326.47;1755480;79;20999;-87
2022/06/13 02:01:57;;;;;;;13.60;11.45;;;;;;;17.04;78.66;100345.84;1755483;79;20908;-87
2022/06/13 02:04:33;;;;;;;;;;;;;;;17.08;79.68;100332.66;1758155;79;20948;-87
2022/06/13 02:07:12;;;;;;;13.95;9.83;;;;;;;17.13;79.54;100329.92;1756306;79;21313;-87
2022/06/13 02:10:03;;;;;;;12.03;9.78;;;;;;;17.15;79.38;100353.14;1756018;80;20991;-87
2022/06/13 02:12:32;;;;;;;12.85;10.50;;;;;;;17.22;79.69;100360.03;1756100;79;20991;-86
2022/06/13 02:15:23;;;;;;;15.50;10.70;;;;;;;17.28;79.77;100342.25;1756102;80;20979;-86
2022/06/13 02:17:58;;;;;;;11.43;9.90;;;;;;;17.35;79.69;100354.45;1756230;79;20963;-86
2022/06/13 02:20:35;;;;;;;17.32;11.08;;;;;;;17.39;79.58;100356.67;1756126;80;22212;-85
2022/06/13 02:23:07;;;;;;;14.78;9.98;;;;;;;17.44;79.21;100349.61;1762245;80;20952;-87
2022/06/13 02:25:43;;;;;;;11.55;8.70;;;;;;;17.47;78.92;100345.83;1720057;83;20923;-86
2022/06/13 02:28:30;;;;;;;14.13;10.28;;;;;;;17.47;78.79;100348.48;1719601;83;20900;-86
2022/06/13 02:31:05;;;;;;;13.95;10.10;;;;;;;17.48;78.74;100360.28;1755281;80;20873;-87
2022/06/13 02:33:35;;;;;;;13.45;9.80;;;;;;;17.50;78.58;100365.45;1755852;80;21204;-86
2022/06/13 02:36:18;;;;;;;11.45;9.08;;;;;;;17.49;78.50;100371.22;1719539;81;20945;-86
2022/06/13 02:38:53;;;;;;;13.00;9.78;;;;;;;17.48;78.31;100376.69;1718177;80;20944;-85
2022/06/13 02:41:22;;;;;;;13.35;9.38;;;;;;;17.43;78.31;100382.41;1718517;83;20935;-85
2022/06/13 02:44:02;;;;;;;14.18;10.58;;;;;;;17.39;78.25;100377.05;1718373;83;20848;-87
2022/06/13 02:46:40;;;;;;;12.50;10.15;;;;;;;17.37;78.21;100378.50;1753301;81;21851;-88
2022/06/13 02:49:33;;;;;;;15.93;10.48;;;;;;;17.36;78.27;100379.96;1757556;80;20884;-86
2022/06/13 02:52:14;;;;;;;14.07;11.08;;;;;;;17.35;78.24;100387.58;1758521;81;21354;-86
2022/06/13 02:54:59;;;;;;;11.38;9.48;;;;;;;17.35;78.04;100391.55;1758648;80;21007;-86
2022/06/13 02:57:40;;;;;;;16.87;11.50;;;;;;;17.33;78.01;100390.86;1758678;81;20979;-87
2022/06/13 03:00:25;;;;;;;12.15;10.85;;;;;;;17.33;78.03;100381.09;1758598;81;21167;-87
2022/06/13 03:03:22;;;;;;;14.07;10.40;;;;;;;17.34;78.11;100374.82;1758739;81;20833;-88
2022/06/13 03:06:13;;;;;;;17.23;10.78;;;;;;;17.35;78.22;100377.80;1750604;81;21041;-88
2022/06/13 03:08:48;;;;;;;15.00;10.18;;;;;;;17.38;78.32;100380.16;1754865;80;21007;-88
2022/06/13 03:11:32;;;;;;;12.95;11.63;;;;;;;17.43;78.38;100374.46;1758386;81;20849;-89
2022/06/13 03:14:16;;;;;;;16.20;10.50;;;;;;;17.48;78.51;100371.38;1758988;80;21157;-89
2022/06/13 03:16:58;;;;;;;15.03;11.10;;;;;;;17.53;78.78;100371.28;1758584;81;20924;-88
2022/06/13 03:19:41;;;;;;;18.32;10.75;;;;;;;17.60;78.70;100371.55;1758361;81;20904;-88
2022/06/13 03:22:18;;;;;;;13.70;10.40;;;;;;;17.65;78.95;100374.59;1758326;81;20931;-87
2022/06/13 03:24:51;;;;;;;16.60;11.12;;;;;;;17.70;79.02;100380.32;1758325;81;21439;-87
2022/06/13 03:27:29;;;;;;;13.20;10.20;;;;;;;17.77;79.09;100384.06;1758268;81;21789;-87
2022/06/13 03:30:01;;;;;;;14.40;10.35;;;;;;;17.82;79.29;100381.00;1758470;80;20911;-86
2022/06/13 03:32:32;;;;;;;11.20;10.08;;;;;;;17.88;79.44;100373.80;1758876;81;20931;-84
2022/06/13 03:35:01;;;;;;;12.88;10.48;;;;;;;17.95;79.34;100376.20;1758517;81;20976;-86
2022/06/13 03:37:47;;;;;;;12.03;10.78;;;;;;;18.02;79.30;100376.46;1741451;81;21394;-87
2022/06/13 03:40:21;;;;;;;11.68;10.40;;;;;;;18.09;79.35;100376.21;1758375;81;21227;-86
2022/06/13 03:42:58;;;;;;;17.25;11.70;;;;;;;18.17;79.36;100380.80;1758260;81;20921;-86
2022/06/13 03:45:39;;;;;;;11.78;10.55;;;;;;;18.24;79.47;100377.89;1758550;81;20971;-86
2022/06/13 03:48:20;;;;;;;13.78;9.50;;;;;;;18.32;79.60;100371.36;1740601;82;20909;-87
2022/06/13 03:50:51;;;;;;;15.05;10.30;;;;;;;18.41;79.65;100366.98;1752996;82;21354;-86
2022/06/13 03:53:29;;;;;;;13.15;10.63;;;;;;;18.53;79.63;100376.89;1752948;82;21149;-87
2022/06/13 03:56:11;;;;;;;11.08;9.98;;;;;;;18.62;79.56;100372.83;1749374;82;20928;-87
2022/06/13 03:58:44;;;;;;;14.70;11.10;;;;;;;18.75;79.36;100381.77;1752754;81;21378;-89
2022/06/13 04:01:31;;;;;;;13.10;9.78;;;;;;;18.88;79.21;100379.28;1752784;82;21047;-87
2022/06/13 04:04:00;;;;;;;15.75;11.08;;;;;;;19.02;79.05;100384.88;1752768;80;20935;-86
2022/06/13 04:06:39;;;;;;;11.20;9.65;;;;;;;19.17;78.67;100387.83;1752817;82;21318;-85
2022/06/13 04:09:20;;;;;;;11.85;8.73;;;;;;;19.30;78.42;100388.77;1752726;80;20856;-85
2022/06/13 04:12:45;;;;;;;24.30;8.88;;;;;;;19.53;78.04;100402.39;1753136;82;21298;-88
2022/06/13 04:15:42;;;;;;;12.00;9.40;;;;;;;19.97;77.51;100401.54;1752748;82;20888;-87
2022/06/13 04:18:52;;;;;;;9.13;8.15;;;;;;;20.69;75.73;100393.99;1751368;81;20919;-85
2022/06/13 04:21:33;;;;;;;8.53;7.72;;;;;;;21.34;73.54;100394.53;1752832;82;21035;-86
2022/06/13 04:24:18;;;;;;;7.85;7.15;;;;;;;22.03;71.27;100399.44;1716337;82;20883;-87
2022/06/13 04:27:09;;;;;;;11.08;7.00;;;;;;;22.61;69.40;100402.23;1716679;83;21001;-86
2022/06/13 04:29:47;;;;;;;10.30;7.28;;;;;;;23.22;67.52;100397.48;1752702;81;20940;-86
2022/06/13 04:32:18;;;;;;;8.65;7.33;;;;;;;23.84;65.13;100403.94;1716895;83;20895;-87
2022/06/13 04:34:49;;;;;;;12.93;7.03;;;;;;;24.34;63.09;100410.36;1717062;83;21252;-86
2022/06/13 04:37:17;;;;;;;9.18;6.92;;;;;;;24.79;61.48;100400.92;1716994;83;20841;-88
2022/06/13 04:39:44;;;;;;;9.75;6.80;;;;;;;25.20;59.80;100405.14;1716787;83;21457;-87
2022/06/13 04:42:11;;;;;;;7.25;6.55;;;;;;;25.55;58.41;100407.91;1712092;83;21045;-88
2022/06/13 04:44:39;;;;;;;9.10;6.62;;;;;;;25.92;57.45;100411.78;1716860;82;21046;-88
2022/06/13 04:47:06;;;;;;;7.55;6.75;;;;;;;26.30;56.27;100412.17;1716646;82;21865;-86
2022/06/13 04:49:38;;;;;;;8.88;6.40;;;;;;;26.66;54.74;100410.59;1716636;82;20884;-87
2022/06/13 04:52:13;;;;;;;9.48;6.20;;;;;;;26.90;53.11;100410.22;1716964;83;20884;-88
2022/06/13 04:54:59;;;;;;;7.33;6.72;;;;;;;27.03;52.61;100401.64;1716857;83;20947;-88
2022/06/13 04:57:26;;;;;;;9.20;6.87;;;;;;;27.24;52.27;100406.58;1716900;83;20876;-88
2022/06/13 04:59:52;;;;;;;7.10;6.42;;;;;;;27.55;51.14;100405.12;1712224;83;21867;-88
2022/06/13 05:02:23;;;;;;;11.70;6.55;;;;;;;27.79;50.23;100406.30;1716677;83;21511;-88
2022/06/13 05:04:51;;;;;;;9.58;6.72;;;;;;;27.93;49.17;100399.06;1734649;82;20971;-88
2022/06/13 05:07:21;;;;;;;9.98;7.03;;;;;;;28.02;48.63;100403.18;1752965;80;20884;-88
2022/06/13 05:09:54;;;;;;;7.90;7.10;;;;;;;28.14;47.78;100405.51;1753029;82;20884;-87
2022/06/13 05:12:41;;;;;;;8.98;6.87;;;;;;;28.28;47.75;100405.78;1753089;82;21137;-88
2022/06/13 05:15:22;;;;;;;11.73;7.60;;;;;;;28.56;47.62;100405.16;1753187;82;20924;-87
2022/06/13 05:18:28;;;;;;;8.53;7.40;;;;;;;28.90;46.74;100402.05;1752149;80;20909;-87
2022/06/13 05:21:16;;;;;;;9.33;7.62;;;;;;;29.22;46.41;100398.52;1716890;82;20975;-86
2022/06/13 05:24:09;;;;;;;8.65;6.85;;;;;;;29.46;45.35;100396.83;1716132;82;20924;-88
2022/06/13 05:26:37;;;;;;;9.78;8.30;;;;;;;29.68;44.76;100398.59;1716893;83;20967;-87
2022/06/13 05:29:04;;;;;;;8.80;7.58;;;;;;;29.98;44.21;100389.80;1717315;83;20892;-86
2022/06/13 05:31:32;;;;;;;8.50;7.22;;;;;;;30.23;43.87;100393.75;1719110;83;20899;-86
2022/06/13 05:33:58;;;;;;;10.93;8.38;;;;;;;30.47;43.06;100394.19;1717612;83;20903;-87
2022/06/13 05:36:25;;;;;;;10.70;7.85;;;;;;;30.76;42.61;100401.19;1717144;83;21412;-87
2022/06/13 05:39:02;;;;;;;12.20;7.65;;;;;;;31.01;42.52;100402.92;1717377;83;21245;-87
2022/06/13 05:41:29;;;;;;;9.73;8.73;;;;;;;31.30;42.10;100401.20;1716988;83;21445;-87
2022/06/13 05:43:55;;;;;;;13.30;8.43;;;;;;;31.64;40.91;100400.95;1716973;83;21014;-86
2022/06/13 05:46:35;;;;;;;8.85;7.30;;;;;;;31.89;40.37;100399.32;1717042;82;20979;-87
2022/06/13 05:49:04;;;;;;;10.93;8.35;;;;;;;32.17;39.76;100395.88;1714138;83;21006;-87
2022/06/13 05:51:31;;;;;;;14.38;8.35;;;;;;;32.48;39.29;100398.34;1709505;84;21261;-88
2022/06/13 05:54:00;;;;;;;8.75;7.37;;;;;;;32.65;38.87;100403.31;1709437;83;20938;-88
2022/06/13 05:56:27;;;;;;;12.05;7.22;;;;;;;32.76;38.55;100398.89;1709980;84;20934;-88
2022/06/13 05:58:54;;;;;;;7.35;6.65;;;;;;;32.89;38.02;100400.48;1709602;82;20987;-86
2022/06/13 06:01:20;;;;;;;9.15;6.75;;;;;;;32.99;37.31;100396.02;1709561;82;20912;-86
2022/06/13 06:03:47;;;;;;;8.03;6.60;;;;;;;33.13;37.19;100394.37;1709910;84;21095;-89
2022/06/13 06:06:21;;;;;;;10.50;6.87;;;;;;;33.29;37.10;100394.09;1709603;84;20971;-88
2022/06/13 06:08:47;;;;;;;11.25;7.12;;;;;;;33.54;36.70;100390.93;1711162;82;20936;-86
2022/06/13 06:11:14;;;;;;;6.90;5.87;;;;;;;33.78;36.42;100386.94;1711847;84;20896;-87
2022/06/13 06:13:41;;;;;;;7.20;5.05;;;;;;;34.05;35.87;100388.91;1712235;81;20979;-87
2022/06/13 06:16:10;;;;;;;6.83;5.10;;;;;;;34.18;35.48;100379.58;1712072;81;21173;-88
2022/06/13 06:18:38;;;;;;;7.47;5.45;;;;;;;34.18;35.41;100379.58;1714464;81;20849;-86
2022/06/13 06:21:05;;;;;;;6.70;4.70;;;;;;;34.19;35.17;100378.48;1711823;82;20947;-88
2022/06/13 06:23:36;;;;;;;6.78;4.85;;;;;;;34.32;35.16;100379.99;1709848;84;20973;-89
2022/06/13 06:26:04;;;;;;;6.47;4.75;;;;;;;34.43;35.08;100373.03;1709920;84;20951;-90
2022/06/13 06:28:32;;;;;;;4.45;3.92;;;;;;;34.61;34.69;100372.39;1709530;84;21264;-89
2022/06/13 06:31:01;;;;;;;7.50;4.10;;;;;;;34.77;34.43;100374.73;1709695;84;21030;-88
2022/06/13 06:33:28;;;;;;;3.55;2.80;;;;;;;34.97;33.91;100373.55;1709595;84;20908;-89
2022/06/13 06:35:56;;;;;;;3.80;3.50;;;;;;;35.19;32.80;100376.74;1709648;84;20900;-87
2022/06/13 06:38:25;;;;;;;7.17;3.87;;;;;;;35.36;32.35;100368.42;1709368;84;20924;-88
2022/06/13 06:40:52;;;;;;;4.37;3.98;;;;;;;35.50;32.05;100365.48;1709319;84;21091;-87
2022/06/13 06:43:18;;;;;;;9.50;4.58;;;;;;;35.68;32.74;100360.16;1709339;84;20883;-87
2022/06/13 06:45:46;;;;;;;4.97;3.77;;;;;;;35.79;32.46;100359.11;1709167;83;20884;-88
2022/06/13 06:48:21;;;;;;;6.22;4.17;;;;;;;35.88;32.61;100362.97;1709173;82;20908;-88
2022/06/13 06:50:49;;;;;;;6.45;3.40;;;;;;;36.02;32.28;100362.47;1709273;82;20853;-88
2022/06/13 06:53:22;;;;;;;4.85;2.95;;;;;;;36.23;31.63;100368.86;1709270;84;20903;-87
2022/06/13 07:01:19;;;;;;;3.47;3.08;;;;;;;36.92;30.71;100367.59;1709233;82;20884;-87
2022/06/13 07:03:46;;;;;;;4.10;3.65;;;;;;;37.07;30.45;100367.59;1709599;84;20872;-87
2022/06/13 07:06:14;;;;;;;3.98;2.65;;;;;;;37.17;30.57;100369.52;1709139;84;21290;-88
2022/06/13 07:08:41;;;;;;;7.00;3.02;;;;;;;37.30;29.93;100376.34;1709223;84;21014;-88
2022/06/13 07:14:08;;;;;;;4.40;3.00;;;;;;;37.60;29.38;100382.85;1709234;84;21402;-87
2022/06/13 07:16:36;;;;;;;3.33;2.33;;;;;;;37.63;29.03;100378.20;1709190;82;20932;-86
2022/06/13 07:19:03;;;;;;;4.62;2.60;;;;;;;37.68;28.56;100374.08;1709183;82;21433;-88
2022/06/13 07:21:30;;;;;;;5.10;2.80;;;;;;;37.72;28.52;100374.61;1709185;82;20912;-89
2022/06/13 07:23:57;;;;;;;2.80;2.60;;;;;;;37.85;28.57;100374.56;1709203;83;20936;-87
2022/06/13 07:26:23;;;;;;;3.00;2.55;;;;;;;37.86;28.43;100380.84;1709351;84;20908;-87
2022/06/13 07:28:50;;;;;;;3.27;2.62;;;;;;;37.81;27.97;100377.59;1709463;81;20841;-89
2022/06/13 07:31:23;;;;;;;5.47;2.77;;;;;;;37.80;27.90;100375.12;1709446;84;21256;-88
2022/06/13 07:33:50;;;;;;;6.03;5.45;;;;;;;37.81;27.24;100383.06;1709197;82;20916;-89
2022/06/13 07:36:17;;;;;;;4.60;4.05;;;;;;;37.89;27.02;100373.46;1709501;84;20940;-89
2022/06/13 07:38:45;;;;;;;3.42;3.05;;;;;;;38.03;27.23;100377.80;1710316;84;20864;-89
2022/06/13 07:41:19;;;;;;;5.58;2.70;;;;;;;38.05;27.09;100379.16;1710088;83;20952;-88
2022/06/13 07:43:45;;;;;;;3.42;2.83;;;;;;;38.10;26.87;100374.20;1738875;82;21126;-88
2022/06/13 07:46:12;;;;;;;9.58;4.75;;;;;;;38.15;27.14;100372.27;1745184;82;20936;-88
2022/06/13 07:48:38;;;;;;;8.70;3.30;;;;;;;38.23;27.13;100370.84;1745298;81;20972;-91
2022/06/13 07:51:05;;;;;;;8.05;4.22;;;;;;;38.32;27.19;100371.06;1745534;80;20980;-89
2022/06/13 07:53:33;;;;;;;6.62;3.10;;;;;;;38.41;27.31;100367.98;1745320;82;20995;-89
2022/06/13 07:56:00;;;;;;;6.53;5.92;;;;;;;38.45;27.15;100370.98;1745437;81;21842;-90
2022/06/13 07:58:36;;;;;;;4.08;3.15;;;;;;;38.55;26.37;100366.81;1745557;81;20889;-88
2022/06/13 08:01:05;;;;;;;3.20;3.00;;;;;;;38.58;26.17;100371.75;1745510;82;21508;-89
2022/06/13 08:03:34;;;;;;;3.40;3.10;;;;;;;38.56;25.61;100365.73;1745468;81;20960;-89
2022/06/13 08:06:01;;;;;;;3.08;2.77;;;;;;;38.60;25.22;100368.70;1745543;82;20912;-85
2022/06/13 08:08:28;;;;;;;4.85;2.67;;;;;;;38.71;25.10;100364.24;1745599;81;21121;-87
2022/06/13 08:10:58;;;;;;;2.25;2.05;;;;;;;38.85;25.14;100364.95;1745261;80;20865;-87
2022/06/13 08:13:25;;;;;;;6.83;4.95;;;;;;;38.93;24.71;100370.67;1745583;80;20917;-88
2022/06/13 08:15:53;;;;;;;2.52;2.33;;;;;;;39.05;24.58;100370.84;1745049;81;20972;-86
2022/06/13 08:18:21;;;;;;;2.08;1.95;;;;;;;39.03;24.53;100371.68;1745222;81;20850;-87
2022/06/13 08:20:48;;;;;;;3.87;2.02;;;;;;;39.07;24.38;100373.55;1745122;82;21147;-86
2022/06/13 08:23:15;;;;;;;2.37;2.17;;;;;;;39.16;24.02;100368.27;1709068;82;20936;-87
2022/06/13 08:25:42;;;;;;;4.75;3.55;;;;;;;39.17;24.10;100370.70;1709476;84;20987;-87
2022/06/13 08:28:09;;;;;;;1.90;1.80;;;;;;;39.24;23.82;100363.49;1709503;82;21354;-89
2022/06/13 08:30:43;;;;;;;1.72;1.62;;;;;;;39.15;23.20;100370.72;1709381;81;20920;-87
2022/06/13 08:33:12;;;;;;;4.62;2.05;;;;;;;39.25;23.55;100369.27;1709326;84;21096;-87
2022/06/13 08:35:39;;;;;;;1.75;1.65;;;;;;;39.43;23.42;100364.17;1709481;84;20925;-87
2022/06/13 08:38:06;;;;;;;3.08;1.60;;;;;;;39.55;22.99;100364.56;1710538;82;20864;-86
2022/06/13 08:41:15;;;;;;;2.40;1.30;;;;;;;39.67;22.79;100358.13;1709412;84;20939;-86
2022/06/13 08:43:52;;;;;;;4.37;1.80;;;;;;;39.72;22.88;100350.38;1709364;84;20904;-86
2022/06/13 08:47:02;;;;;;;4.70;2.22;;;;;;;39.88;22.69;100355.14;1709316;84;21148;-86
2022/06/13 08:49:55;;;;;;;2.10;1.55;;;;;;;39.94;22.31;100358.09;1710843;82;21424;-87
2022/06/13 08:52:26;;;;;;;4.37;1.82;;;;;;;39.92;22.66;100352.87;1715781;83;20911;-87
2022/06/13 08:55:13;;;;;;;2.62;2.37;;;;;;;39.96;22.54;100351.18;1716819;83;20971;-86
2022/06/13 08:57:47;;;;;;;1.70;1.60;;;;;;;40.02;22.17;100351.91;1716846;82;20892;-88
2022/06/13 09:00:18;;;;;;;1.72;1.62;;;;;;;39.98;21.93;100355.02;1717023;83;21224;-87
2022/06/13 09:04:39;;;;;;;2.83;1.87;;;;;;;39.88;22.63;100351.02;1884718;75;22340;-88
2022/06/13 09:07:23;;;;;;;38.02;4.55;;;;;;;39.83;22.57;100347.78;1860155;77;20911;-88
2022/06/13 09:10:11;;;;;;;27.25;3.58;;;;;;;39.92;22.72;100346.58;1812053;77;21273;-88
2022/06/13 09:12:56;;;;;;;7.78;1.60;;;;;;;39.90;22.90;100345.48;1861711;76;20867;-91
2022/06/13 09:15:31;;;;;;;2.55;1.77;;;;;;;39.87;23.21;100342.53;1861572;77;20953;-88
2022/06/13 09:18:11;;;;;;;3.92;1.70;;;;;;;39.96;23.27;100347.62;1860480;77;20907;-87
2022/06/13 09:20:53;;;;;;;8.93;2.22;;;;;;;40.02;22.82;100336.80;1861438;76;21388;-89
2022/06/13 09:23:43;;;;;;;2.65;2.35;;;;;;;40.01;22.96;100336.56;1861299;76;21096;-89
2022/06/13 09:26:25;;;;;;;3.15;2.00;;;;;;;39.97;23.05;100336.88;1861485;76;20848;-88
2022/06/13 09:29:10;;;;;;;2.80;2.55;;;;;;;39.86;22.68;100340.31;1861369;77;20958;-89
2022/06/13 09:31:42;;;;;;;2.87;1.70;;;;;;;39.91;22.45;100344.39;1861302;76;21349;-88
2022/06/13 09:34:16;;;;;;;1.77;1.35;;;;;;;40.01;22.52;100333.81;1861731;77;20859;-88
2022/06/13 09:36:54;;;;;;;5.85;1.80;;;;;;;40.09;22.37;100337.80;1861270;77;21233;-89
2022/06/13 09:39:20;;;;;;;6.83;1.65;;;;;;;40.11;22.63;100339.17;1861311;77;21333;-90
2022/06/13 09:42:29;;;;;;;14.60;2.55;;;;;;;40.07;22.49;100337.31;1861202;77;20907;-87
2022/06/13 09:45:17;;;;;;;7.55;2.00;;;;;;;40.05;22.41;100335.42;1861446;77;20869;-89
2022/06/13 09:48:38;;;;;;;5.20;1.82;;;;;;;39.92;22.97;100332.28;1861296;76;20970;-87
2022/06/13 09:51:39;;;;;;;3.50;1.60;;;;;;;39.83;22.64;100334.06;1861714;77;21335;-88
2022/06/13 09:54:39;;;;;;;9.18;2.10;;;;;;;39.81;22.58;100334.88;1860933;76;20927;-89
2022/06/13 09:57:20;;;;;;;5.78;1.57;;;;;;;39.69;23.64;100337.22;1861452;77;20958;-87
2022/06/13 10:00:11;;;;;;;1.90;1.70;;;;;;;39.65;22.91;100332.08;1861284;77;20892;-89
2022/06/13 10:03:01;;;;;;;1.80;1.70;;;;;;;39.63;22.74;100332.92;1861700;77;20816;-87
2022/06/13 10:05:48;;;;;;;2.33;1.50;;;;;;;39.58;23.46;100329.69;1862458;76;21190;-88
2022/06/13 10:08:32;;;;;;;3.95;1.87;;;;;;;39.42;22.79;100336.45;1862065;77;20871;-89
2022/06/13 10:11:28;;;;;;;2.77;2.08;;;;;;;39.32;23.25;100332.69;1827682;76;20824;-88
2022/06/13 10:14:09;;;;;;;4.70;2.50;;;;;;;39.36;23.70;100332.94;1861420;77;20878;-87
2022/06/13 10:17:02;;;;;;;2.57;1.67;;;;;;;39.40;22.91;100329.06;1860684;77;20931;-87
2022/06/13 10:19:49;;;;;;;4.15;2.08;;;;;;;39.44;22.86;100326.00;1860503;76;21083;-87
2022/06/13 10:22:21;;;;;;;3.40;1.72;;;;;;;39.41;22.81;100317.80;1860456;77;20934;-88
2022/06/13 10:25:08;;;;;;;1.70;1.60;;;;;;;39.43;22.92;100322.45;1860808;77;21001;-88
2022/06/13 10:27:56;;;;;;;2.30;1.50;;;;;;;39.41;22.98;100322.48;1860694;76;20934;-87
2022/06/13 10:30:44;;;;;;;6.87;6.22;;;;;;;39.37;23.54;100320.83;1838561;77;20903;-87
2022/06/13 10:33:42;;;;;;;3.87;2.30;;;;;;;39.34;23.72;100317.31;1860935;77;21130;-86
2022/06/13 10:36:26;;;;;;;1.82;1.72;;;;;;;39.31;23.14;100318.72;1859770;76;20903;-88
2022/06/13 10:39:03;;;;;;;8.95;2.52;;;;;;;39.24;23.44;100316.04;1812661;77;20965;-87
2022/06/13 10:41:30;;;;;;;4.90;3.12;;;;;;;39.22;23.69;100320.47;1860805;77;20923;-89
2022/06/13 10:43:57;;;;;;;3.92;1.70;;;;;;;39.26;23.63;100316.57;1860792;76;20906;-87
2022/06/13 10:46:24;;;;;;;3.00;1.40;;;;;;;39.41;23.50;100311.50;1861103;77;21130;-87
2022/06/13 10:49:05;;;;;;;2.75;1.77;;;;;;;39.48;22.78;100310.59;1860424;77;20899;-87
2022/06/13 10:51:35;;;;;;;2.47;1.30;;;;;;;39.46;22.79;100310.06;1830137;77;20958;-87
2022/06/13 10:54:09;;;;;;;20.92;19.42;;;;;;;39.38;22.98;100310.98;1860881;77;20943;-88
2022/06/13 10:56:50;;;;;;;42.38;38.40;;;;;;;39.36;23.38;100310.42;1860926;77;20879;-88
2022/06/13 10:59:29;;;;;;;3.60;3.17;;;;;;;39.40;22.78;100309.85;1785367;80;21196;-89
2022/06/13 11:02:20;;;;;;;26.42;24.32;;;;;;;39.41;22.61;100306.02;1791543;80;21440;-89
2022/06/13 11:04:50;;;;;;;56.92;52.00;;;;;;;39.34;23.19;100306.34;1776113;79;20940;-88
2022/06/13 11:07:18;;;;;;;3.90;2.90;;;;;;;39.36;23.58;100301.37;1731847;80;20946;-87
2022/06/13 11:09:48;;;;;;;2.17;1.90;;;;;;;39.36;22.94;100298.63;1756665;81;20968;-88
2022/06/13 11:12:20;;;;;;;1.62;1.52;;;;;;;39.27;23.00;100300.39;1791397;78;21341;-89
2022/06/13 11:23:45;;;;;;;5.22;2.10;;;;;;;38.52;23.50;100287.36;1791600;78;21428;-88
2022/06/13 11:28:57;;;;;;;5.67;4.10;;;;;;;38.21;23.91;100277.73;1791607;78;20923;-88
2022/06/13 11:31:26;;;;;;;3.77;3.58;;;;;;;37.99;24.03;100282.22;1791653;78;20926;-89
2022/06/13 11:33:53;;;;;;;4.53;2.15;;;;;;;37.73;23.88;100274.98;1791697;78;21026;-87
2022/06/13 11:36:27;;;;;;;5.15;2.77;;;;;;;37.49;24.45;100275.34;1792173;78;20844;-86
2022/06/13 11:39:04;;;;;;;;;;;;;;;37.26;25.08;100264.47;1794152;78;21219;-88
2022/06/13 11:41:46;;;;;;;5.03;2.87;;;;;;;36.98;25.82;100262.62;1791777;78;20330;-88
2022/06/13 11:44:19;;;;;;;3.60;2.80;;;;;;;36.65;26.04;100260.75;1791716;79;20907;-89
2022/06/13 11:47:00;;;;;;;6.53;4.08;;;;;;;36.40;26.37;100267.02;1790636;78;20963;-89
2022/06/13 11:49:43;;;;;;;6.47;3.65;;;;;;;36.18;26.22;100266.46;1767480;80;20975;-87
2022/06/13 11:53:35;;;;;;;4.83;2.60;;;;;;;35.85;26.26;100262.53;1791322;78;21149;-90
2022/06/13 11:54:54;;;;;;;3.85;2.67;;;;;;;35.52;26.62;100265.13;1785447;78;20868;-88
2022/06/13 11:57:31;;;;;;;3.57;2.30;;;;;;;35.23;27.01;100259.27;1792062;78;20895;-88
2022/06/13 12:00:23;;;;;;;3.55;2.85;;;;;;;35.02;27.53;100256.95;1791647;78;20935;-87
2022/06/13 12:02:58;;;;;;;3.55;3.27;;;;;;;34.86;27.46;100253.28;1791570;78;21597;-89
2022/06/13 12:05:34;;;;;;;74.82;67.62;;;;;;;34.63;27.85;100244.96;1793405;79;21879;-87
2022/06/13 12:08:23;;;;;;;14.15;12.78;;;;;;;34.38;28.27;100251.81;1793224;79;21332;-87
2022/06/13 12:11:02;;;;;;;4.40;4.00;;;;;;;34.20;28.66;100238.59;1780401;79;20999;-88
2022/06/13 12:13:40;;;;;;;3.33;2.65;;;;;;;34.05;29.06;100239.23;1779090;80;20951;-88
2022/06/13 12:16:15;;;;;;;4.75;2.22;;;;;;;33.93;29.58;100235.83;1779181;79;20880;-87
2022/06/13 12:18:51;;;;;;;3.05;2.08;;;;;;;33.74;29.10;100228.02;1783930;78;20944;-88
2022/06/13 12:21:48;;;;;;;3.00;1.77;;;;;;;33.59;29.44;100233.29;1796093;79;20935;-87
2022/06/13 12:24:26;;;;;;;13.38;12.30;;;;;;;33.44;28.98;100222.50;1794209;80;20888;-86
2022/06/13 12:27:17;;;;;;;3.95;3.67;;;;;;;33.28;29.43;100219.83;1796455;80;20934;-87